Thunder radar more information blitzortung!


Radar de pluja more information rain snow radar


Visita la nostra xarxa de llocs de meteo:

Template documentation
and downloads

And another site



No particular awareness of the weather is required.    There are no Weather-warnings

Pagina Historial Weather Underground text

Diari Resum May 27, 2017 Unitats:  Mètric    Imperial   Tant
« Previous Dia
SegĂźent Dia »
Diari Setmana Mensual Anual Personalitzada
  Maxima: Minima: Media:
Temperatura: -17.8 °C -9.1 °C -5.7 °C
Punt de rosada: -17.8 °C -12.1 °C -10.4 °C
Humitat: Humidity % 38 % 60 %
Wind Speed: 0 km/h 0 km/h 11.7 km/h
RĂ fegues de vent: 0 km/h - -
Vent:- - East
Pression baro: 0 hPa 34361.1 hPa -
Precipitacions: 0 mm    
Historical Graphs
 
 
Dades de taula per May 27, 2017
Temps Temperatura Punt de rosada Pression baro Vent Wind Speed RĂ fegues de vent Humitat Rainfall Rate (Hourly)
-17.8 °C -17.8 °C 0 hPa Calm     Humidity % 0 mm
00:00 -8.1 °C -9.9 °C 34395 hPa ENE 7.7 km/h 12.9 km/h 81 % 0 mm
00:02 -8 °C -10.3 °C 34361.1 hPa ENE 9.3 km/h 9.3 km/h 77 % 0 mm
00:07 -8.1 °C -10.2 °C 34361.1 hPa NNE 12.7 km/h 12.7 km/h 78 % 0 mm
00:10 -8.1 °C -9.9 °C 34395 hPa NE 7.7 km/h 15.6 km/h 81 % 0 mm
00:20 -8.1 °C -9.9 °C 34395 hPa NE 5.1 km/h 15.6 km/h 81 % 0 mm
00:30 -8.1 °C -9.9 °C 34395 hPa ENE 15.6 km/h 15.6 km/h 81 % 0 mm
00:40 -8.2 °C -10.1 °C 34428.8 hPa ENE 15.6 km/h 20.8 km/h 81 % 0 mm
00:50 -8.3 °C -10 °C 34428.8 hPa NE 12.9 km/h 15.6 km/h 82 % 0 mm
01:00 -8.3 °C -10 °C 34395 hPa NE 12.9 km/h 15.6 km/h 82 % 0 mm
01:10 -8.2 °C -9.9 °C 34395 hPa NE 7.7 km/h 15.6 km/h 82 % 0 mm
01:20 -8.2 °C -9.9 °C 34395 hPa NE 7.7 km/h 15.6 km/h 82 % 0 mm
01:30 -8.2 °C -9.9 °C 34428.8 hPa NE 12.9 km/h 15.6 km/h 82 % 0 mm
01:40 -8.3 °C -10 °C 34462.7 hPa ENE 12.9 km/h 15.6 km/h 82 % 0 mm
01:50 -8.3 °C -10 °C 34462.7 hPa NE 7.7 km/h 15.6 km/h 82 % 0 mm
02:00 -8.3 °C -10.1 °C 34462.7 hPa NE 15.6 km/h 15.6 km/h 81 % 0 mm
02:10 -8.2 °C -10.1 °C 34462.7 hPa Calm   12.9 km/h 81 % 0 mm
02:20 -8.2 °C -10.1 °C 34462.7 hPa NE 7.7 km/h 10.3 km/h 80 % 0 mm
02:30 -8.1 °C -10 °C 34462.7 hPa Calm   5.1 km/h 80 % 0 mm
02:40 -8 °C -9.9 °C 34462.7 hPa NE 7.7 km/h 10.3 km/h 80 % 0 mm
03:00 -7.9 °C -9.9 °C 34462.7 hPa NE 7.7 km/h 12.9 km/h 79 % 0 mm
03:10 -7.8 °C -9.9 °C 34462.7 hPa NE 5.1 km/h 10.3 km/h 78 % 0 mm
03:20 -7.7 °C -9.8 °C 34462.7 hPa NE 5.1 km/h 7.7 km/h 78 % 0 mm
03:30 -7.7 °C -9.8 °C 34462.7 hPa ENE 5.1 km/h 7.7 km/h 78 % 0 mm
03:40 -7.6 °C -9.8 °C 34462.7 hPa ENE 7.7 km/h 10.3 km/h 78 % 0 mm
03:50 -7.6 °C -9.8 °C 34462.7 hPa NE 5.1 km/h 10.3 km/h 78 % 0 mm
04:00 -7.5 °C -9.7 °C 34462.7 hPa Calm   7.7 km/h 78 % 0 mm
04:10 -7.3 °C -9.6 °C 34462.7 hPa Calm   5.1 km/h 77 % 0 mm
04:20 -7.2 °C -9.6 °C 34462.7 hPa ESE 2.6 km/h 5.1 km/h 76 % 0 mm
04:30 -7.1 °C -9.6 °C 34462.7 hPa ESE 5.1 km/h 5.1 km/h 75 % 0 mm
04:40 -6.8 °C -9.3 °C 34462.7 hPa ESE 2.6 km/h 5.1 km/h 75 % 0 mm
04:50 -6.6 °C -9.2 °C 34462.7 hPa ESE 2.6 km/h 12.9 km/h 74 % 0 mm
05:00 -6.3 °C -9.2 °C 34462.7 hPa South 5.1 km/h 10.3 km/h 72 % 0 mm
05:10 -6 °C -9.1 °C 34462.7 hPa SSW 2.6 km/h 7.7 km/h 71 % 0 mm
05:20 -5.8 °C -9 °C 34462.7 hPa ENE 5.1 km/h 12.9 km/h 70 % 0 mm
05:30 -5.8 °C -9.1 °C 34462.7 hPa East 5.1 km/h 12.9 km/h 69 % 0 mm
05:40 -5.6 °C -9.1 °C 34462.7 hPa East 7.7 km/h 10.3 km/h 68 % 0 mm
05:50 -5.6 °C -9.1 °C 34462.7 hPa ENE 7.7 km/h 10.3 km/h 67 % 0 mm
06:00 -5.4 °C -9.3 °C 34496.6 hPa East 12.9 km/h 15.6 km/h 65 % 0 mm
06:10 -5.4 °C -9.2 °C 34496.6 hPa East 7.7 km/h 20.8 km/h 65 % 0 mm
06:20 -5.1 °C -9.2 °C 34496.6 hPa East 5.1 km/h 20.8 km/h 63 % 0 mm
06:30 -4.7 °C -8.9 °C 34496.6 hPa East 5.1 km/h 10.3 km/h 62 % 0 mm
06:40 -4.8 °C -9.1 °C 34496.6 hPa East 7.7 km/h 23.3 km/h 62 % 0 mm
06:50 -4.7 °C -9.3 °C 34496.6 hPa ESE 7.7 km/h 20.8 km/h 60 % 0 mm
07:00 -4.7 °C -9.1 °C 34496.6 hPa ESE 7.7 km/h 12.9 km/h 61 % 0 mm
07:10 -4.6 °C -9.1 °C 34496.6 hPa East 12.9 km/h 15.6 km/h 60 % 0 mm
07:20 -4.2 °C -9.1 °C 34496.6 hPa ESE 7.7 km/h 12.9 km/h 58 % 0 mm
07:30 -4.4 °C -9.3 °C 34496.6 hPa East 5.1 km/h 18.2 km/h 58 % 0 mm
07:40 -4.3 °C -9.2 °C 34496.6 hPa East 12.9 km/h 23.3 km/h 58 % 0 mm
07:50 -4.2 °C -9.1 °C 34496.6 hPa East 7.7 km/h 20.8 km/h 58 % 0 mm
08:00 -3.8 °C -9.1 °C 34496.6 hPa ESE 7.7 km/h 10.3 km/h 56 % 0 mm
08:10 -3.9 °C -9.3 °C 34533.8 hPa East 12.9 km/h 20.8 km/h 55 % 0 mm
08:20 -4.1 °C -9.4 °C 34533.8 hPa East 15.6 km/h 20.8 km/h 55 % 0 mm
08:30 -3.7 °C -9.4 °C 34496.6 hPa East 12.9 km/h 18.2 km/h 53 % 0 mm
13:37 -3.6 °C -9.3 °C 34496.6 hPa ESE 20.9 km/h 20.9 km/h 53 % 0 mm
13:42 -3.3 °C -9.2 °C 34496.6 hPa East 17.9 km/h 17.9 km/h 52 % 0 mm
13:47 -3.5 °C -9.4 °C 34496.6 hPa East 15 km/h 15 km/h 52 % 0 mm
13:52 -3.6 °C -9.5 °C 34533.8 hPa East 15 km/h 15 km/h 52 % 0 mm
13:57 -3.5 °C -9.6 °C 34533.8 hPa SSE 25.4 km/h 25.4 km/h 51 % 0 mm
14:02 -3.5 °C -9.6 °C 34533.8 hPa ESE 15.3 km/h 15.3 km/h 51 % 0 mm
14:07 -3.6 °C -9.8 °C 34496.6 hPa SSE 16.1 km/h 16.1 km/h 50 % 0 mm
14:12 -3.3 °C -9.6 °C 34496.6 hPa ESE 17.9 km/h 17.9 km/h 50 % 0 mm
14:17 -3.4 °C -9.8 °C 34496.6 hPa East 15 km/h 15.3 km/h 49 % 0 mm
14:20 -3.6 °C -9.9 °C 34496.6 hPa SSE 23.8 km/h 23.8 km/h 49 % 0 mm
14:25 -3.3 °C -9.8 °C 34496.6 hPa East 20.9 km/h 20.9 km/h 49 % 0 mm
14:30 -3.4 °C -9.9 °C 34496.6 hPa SE 17.9 km/h 17.9 km/h 48 % 0 mm
14:35 -3.6 °C -10.2 °C 34496.6 hPa ESE 17.9 km/h 17.9 km/h 48 % 0 mm
14:40 -3.4 °C -10.1 °C 34496.6 hPa ENE 17.9 km/h 17.9 km/h 48 % 0 mm
14:45 -3.6 °C -10.3 °C 34496.6 hPa East 26.9 km/h 26.9 km/h 47 % 0 mm
14:50 -3.5 °C -10.2 °C 34462.7 hPa SE 23.8 km/h 23.8 km/h 47 % 0 mm
14:55 -3.2 °C -10.1 °C 34462.7 hPa ESE 20.9 km/h 20.9 km/h 46 % 0 mm
15:00 -3.3 °C -10.4 °C 34462.7 hPa ESE 25.1 km/h 25.1 km/h 45 % 0 mm
15:05 -3.5 °C -10.6 °C 34462.7 hPa East 20.9 km/h 20.9 km/h 45 % 0 mm
15:10 -3.4 °C -10.7 °C 34462.7 hPa NNE 29.8 km/h 29.8 km/h 44 % 0 mm
15:15 -3.5 °C -11 °C 34462.7 hPa ESE 29.8 km/h 29.8 km/h 43 % 0 mm
15:20 -3.4 °C -10.9 °C 34462.7 hPa East 17.9 km/h 17.9 km/h 43 % 0 mm
15:25 -3.4 °C -10.9 °C 34462.7 hPa SW 20.9 km/h 20.9 km/h 43 % 0 mm
15:30 -3.2 °C -10.7 °C 34462.7 hPa SSE 20.9 km/h 20.9 km/h 43 % 0 mm
15:35 -3.1 °C -10.4 °C 34462.7 hPa ENE 15.3 km/h 15.3 km/h 44 % 0 mm
15:40 -3.2 °C -10.8 °C 34462.7 hPa ESE 15.6 km/h 15.6 km/h 43 % 0 mm
15:45 -2.9 °C -10.7 °C 34462.7 hPa SE 15 km/h 15 km/h 42 % 0 mm
15:50 -2.8 °C -10.6 °C 34462.7 hPa SE 11.9 km/h 11.9 km/h 42 % 0 mm
15:55 -2.8 °C -10.8 °C 34462.7 hPa SSE 15 km/h 15 km/h 41 % 0 mm
16:00 -3.1 °C -11 °C 34462.7 hPa SE 26.9 km/h 26.9 km/h 41 % 0 mm
16:05 -2.8 °C -11 °C 34462.7 hPa ESE 20.9 km/h 20.9 km/h 40 % 0 mm
16:10 -3.2 °C -11.8 °C 34462.7 hPa SE 26.9 km/h 26.9 km/h 38 % 0 mm
16:15 -3.2 °C -11.3 °C 34462.7 hPa SSE 17.9 km/h 17.9 km/h 40 % 0 mm
16:20 -3.2 °C -11.3 °C 34462.7 hPa SE 20.9 km/h 20.9 km/h 40 % 0 mm
16:25 -3.3 °C -11.6 °C 34462.7 hPa ENE 26.9 km/h 26.9 km/h 39 % 0 mm
16:30 -3.3 °C -11.6 °C 34462.7 hPa SE 26.9 km/h 26.9 km/h 39 % 0 mm
16:35 -3.5 °C -12.1 °C 34462.7 hPa ESE 22.5 km/h 22.5 km/h 38 % 0 mm
16:40 -3.4 °C -11.7 °C 34462.7 hPa ESE 17.9 km/h 17.9 km/h 39 % 0 mm
16:45 -3.4 °C -11.9 °C 34462.7 hPa ESE 27.2 km/h 27.2 km/h 38 % 0 mm
16:55 -3.3 °C -11.5 °C 34428.8 hPa East 20.9 km/h 20.9 km/h 40 % 0 mm
17:00 -3.3 °C -11.2 °C 34428.8 hPa SSE 23.8 km/h 23.8 km/h 41 % 0 mm
17:05 -3.2 °C -10.9 °C 34428.8 hPa ESE 23.8 km/h 23.8 km/h 42 % 0 mm
17:10 -3.3 °C -11.3 °C 34428.8 hPa ESE 19.6 km/h 19.6 km/h 41 % 0 mm
17:15 -3.3 °C -11.1 °C 34428.8 hPa ENE 29.8 km/h 29.8 km/h 42 % 0 mm
17:20 -3.3 °C -11.3 °C 34428.8 hPa East 20.9 km/h 20.9 km/h 41 % 0 mm
17:25 -3.4 °C -11.1 °C 34428.8 hPa East 23.8 km/h 23.8 km/h 42 % 0 mm
17:26 -3.3 °C -11.1 °C 34428.8 hPa ESE 20.3 km/h 20.3 km/h 42 % 0 mm
17:31 -3.4 °C -11.1 °C 34428.8 hPa East 20.9 km/h 20.9 km/h 42 % 0 mm
17:36 -3.4 °C -11.1 °C 34428.8 hPa ESE 32.8 km/h 32.8 km/h 42 % 0 mm
17:41 -3.4 °C -11.1 °C 34428.8 hPa ESE 17.9 km/h 17.9 km/h 42 % 0 mm
17:46 -3.4 °C -11.3 °C 34428.8 hPa ESE 23.8 km/h 23.8 km/h 41 % 0 mm
17:51 -3.4 °C -11.2 °C 34428.8 hPa SE 23.8 km/h 23.8 km/h 42 % 0 mm
17:56 -3.6 °C -11.4 °C 34428.8 hPa ESE 20.9 km/h 20.9 km/h 41 % 0 mm
18:01 -3.6 °C -11.4 °C 34428.8 hPa ESE 16.1 km/h 16.1 km/h 41 % 0 mm
18:06 -3.6 °C -11.7 °C 34428.8 hPa East 17.9 km/h 17.9 km/h 40 % 0 mm
18:11 -3.7 °C -11.6 °C 34428.8 hPa ENE 32.8 km/h 32.8 km/h 41 % 0 mm
18:16 -3.7 °C -11.6 °C 34428.8 hPa ESE 20.9 km/h 20.9 km/h 41 % 0 mm
18:21 -3.8 °C -11.4 °C 34428.8 hPa ENE 23.8 km/h 23.8 km/h 42 % 0 mm
18:26 -3.9 °C -11.2 °C 34428.8 hPa ENE 23.8 km/h 23.8 km/h 44 % 0 mm
18:31 -4 °C -11.1 °C 34428.8 hPa SSE 29.8 km/h 29.8 km/h 45 % 0 mm
18:36 -4 °C -10.9 °C 34395 hPa ESE 16.1 km/h 16.1 km/h 46 % 0 mm
18:41 -4.1 °C -10.8 °C 34395 hPa SE 15.6 km/h 15.6 km/h 47 % 0 mm
18:46 -4.2 °C -10.9 °C 34395 hPa ESE 16.1 km/h 16.1 km/h 47 % 0 mm
18:51 -4.3 °C -10.9 °C 34395 hPa East 22 km/h 22 km/h 47 % 0 mm
18:56 -4.3 °C -10.8 °C 34395 hPa ESE 20.9 km/h 20.9 km/h 48 % 0 mm
19:01 -4.4 °C -10.9 °C 34395 hPa ESE 20.9 km/h 20.9 km/h 48 % 0 mm
19:06 -4.4 °C -10.7 °C 34395 hPa ESE 11.9 km/h 12.7 km/h 49 % 0 mm
19:11 -4.4 °C -10.8 °C 34395 hPa ESE 20.9 km/h 20.9 km/h 49 % 0 mm
19:16 -4.6 °C -10.9 °C 34395 hPa East 20.9 km/h 20.9 km/h 49 % 0 mm
19:21 -4.6 °C -10.7 °C 34428.8 hPa East 20.9 km/h 20.9 km/h 50 % 0 mm
19:26 -4.7 °C -10.8 °C 34428.8 hPa SE 20.9 km/h 20.9 km/h 50 % 0 mm
19:30 -7.4 °C -10.2 °C 34496.6 hPa Calm     73 % 0 mm
19:31 -4.7 °C -10.8 °C 34428.8 hPa SE 15 km/h 15 km/h 50 % 0 mm
19:36 -4.7 °C -10.7 °C 34428.8 hPa ESE 25.4 km/h 25.4 km/h 51 % 0 mm
19:40 -7.5 °C -10.1 °C 34496.6 hPa NNE 2.6 km/h   74 % 0 mm
19:41 -4.8 °C -10.7 °C 34428.8 hPa NNE 15 km/h 15 km/h 51 % 0 mm
19:46 -4.9 °C -10.7 °C 34428.8 hPa ENE 19.2 km/h 19.2 km/h 52 % 0 mm
19:50 -7.5 °C -10.1 °C 34496.6 hPa Calm   5.1 km/h 74 % 0 mm
19:51 -5.1 °C -10.5 °C 34428.8 hPa East 23.8 km/h 23.8 km/h 54 % 0 mm
19:56 -5.1 °C -10.5 °C 34428.8 hPa ENE 16.6 km/h 16.6 km/h 54 % 0 mm
20:00 -7.6 °C -10.2 °C 34496.6 hPa NNE 2.6 km/h 5.1 km/h 74 % 0 mm
20:01 -5.2 °C -10.4 °C 34428.8 hPa ENE 15 km/h 15 km/h 55 % 0 mm
20:06 -5.2 °C -10.4 °C 34462.7 hPa East 9.3 km/h 9.3 km/h 55 % 0 mm
20:10 -7.6 °C -10.1 °C 34496.6 hPa Calm   5.1 km/h 75 % 0 mm
20:11 -5.3 °C -10.4 °C 34462.7 hPa ENE 15 km/h 15 km/h 56 % 0 mm
20:16 -5.3 °C -10.4 °C 34462.7 hPa ENE 17.9 km/h 17.9 km/h 56 % 0 mm
20:20 -7.7 °C -10.2 °C 34496.6 hPa Calm   2.6 km/h 75 % 0 mm
20:21 -5.4 °C -10.2 °C 34462.7 hPa ESE 11.9 km/h 11.9 km/h 58 % 0 mm
20:23 -5.4 °C -10.4 °C 34462.7 hPa NNE 11.9 km/h 11.9 km/h 57 % 0 mm
20:28 -5.5 °C -10.4 °C 34462.7 hPa ESE 17.9 km/h 17.9 km/h 57 % 0 mm
20:30 -7.8 °C -10.3 °C 34496.6 hPa NE 2.6 km/h 2.6 km/h 75 % 0 mm
20:33 -5.6 °C -10.5 °C 34462.7 hPa ESE 11.9 km/h 11.9 km/h 57 % 0 mm
20:38 -5.6 °C -10.4 °C 34462.7 hPa ESE 11.9 km/h 11.9 km/h 58 % 0 mm
20:40 -7.8 °C -10.2 °C 34496.6 hPa Calm   2.6 km/h 76 % 0 mm
20:43 -5.7 °C -10.4 °C 34462.7 hPa ENE 11.9 km/h 11.9 km/h 58 % 0 mm
20:48 -5.7 °C -10.5 °C 34462.7 hPa East 11.9 km/h 11.9 km/h 58 % 0 mm
20:50 -7.9 °C -10.3 °C 34496.6 hPa Calm     76 % 0 mm
20:53 -5.8 °C -10.4 °C 34462.7 hPa ESE 9 km/h 9 km/h 59 % 0 mm
20:58 -5.8 °C -10.4 °C 34462.7 hPa ESE 12.7 km/h 12.7 km/h 59 % 0 mm
21:00 -7.9 °C -10.3 °C 34496.6 hPa Calm     76 % 0 mm
21:03 -5.9 °C -10.4 °C 34462.7 hPa ENE 9 km/h 9 km/h 60 % 0 mm
21:08 -5.9 °C -10.4 °C 34462.7 hPa East 7.6 km/h 7.6 km/h 60 % 0 mm
21:10 -8.1 °C -10.4 °C 34496.6 hPa Calm   2.6 km/h 76 % 0 mm
21:13 -6.1 °C -10.4 °C 34462.7 hPa ESE 11.9 km/h 11.9 km/h 61 % 0 mm
21:18 -6.1 °C -10.2 °C 34462.7 hPa ESE 11.9 km/h 11.9 km/h 62 % 0 mm
21:20 -8.2 °C -10.5 °C 34496.6 hPa Calm     77 % 0 mm
21:23 -6.2 °C -10.4 °C 34462.7 hPa East 6.3 km/h 6.3 km/h 62 % 0 mm
21:28 -6.2 °C -10.4 °C 34462.7 hPa East 9 km/h 9 km/h 62 % 0 mm
21:30 -8.3 °C -10.6 °C 34496.6 hPa Calm     77 % 0 mm
21:33 -6.3 °C -10.3 °C 34462.7 hPa East 8 km/h 8 km/h 63 % 0 mm
21:38 -6.3 °C -10.3 °C 34496.6 hPa ENE 6 km/h 6 km/h 63 % 0 mm
21:40 -8.4 °C -10.4 °C 34496.6 hPa Calm     79 % 0 mm
21:43 -6.3 °C -10.4 °C 34496.6 hPa East 6 km/h 6 km/h 63 % 0 mm
21:48 -6.4 °C -10.3 °C 34496.6 hPa East 3.1 km/h 3.1 km/h 64 % 0 mm
21:50 -8.4 °C -10.5 °C 34496.6 hPa SW 2.6 km/h 2.6 km/h 79 % 0 mm
21:53 -6.4 °C -10.4 °C 34428.8 hPa NE 6 km/h 6 km/h 64 % 0 mm
21:58 -6.4 °C -10.4 °C 34428.8 hPa ENE 6 km/h 6 km/h 64 % 0 mm
22:00 -8.4 °C -10.5 °C 34496.6 hPa Calm   2.6 km/h 79 % 0 mm
22:03 -6.5 °C -10.3 °C 34428.8 hPa NNE 6 km/h 6 km/h 65 % 0 mm
22:08 -6.6 °C -10.3 °C 34462.7 hPa East 3.1 km/h 3.7 km/h 65 % 0 mm
22:10 -8.4 °C -10.5 °C 34462.7 hPa ENE 2.6 km/h 2.6 km/h 79 % 0 mm
22:13 -6.6 °C -10.3 °C 34462.7 hPa NE 6 km/h 6 km/h 65 % 0 mm
22:18 -6.6 °C -10.2 °C 34462.7 hPa NE 4.2 km/h   66 % 0 mm
22:20 -8.4 °C -10.5 °C 34462.7 hPa ENE 2.6 km/h 2.6 km/h 79 % 0 mm
22:23 -6.7 °C -10.3 °C 34462.7 hPa NE 6 km/h 6 km/h 66 % 0 mm
22:28 -6.7 °C -10.3 °C 34462.7 hPa NE 6 km/h 6 km/h 66 % 0 mm
22:30 -8.6 °C -10.6 °C 34496.6 hPa ESE 2.6 km/h 5.1 km/h 79 % 0 mm
22:33 -6.7 °C -10.3 °C 34462.7 hPa ENE 6 km/h 6 km/h 66 % 0 mm
22:38 -6.7 °C -10.3 °C 34462.7 hPa NE 6 km/h 6 km/h 66 % 0 mm
22:40 -8.8 °C -10.8 °C 34496.6 hPa Calm   5.1 km/h 79 % 0 mm
22:44 -6.7 °C -10.2 °C 34462.7 hPa ENE 6 km/h 6 km/h 67 % 0 mm
22:49 -6.7 °C -10.2 °C 34462.7 hPa ENE 3.7 km/h 3.7 km/h 67 % 0 mm
22:50 -8.9 °C -10.9 °C 34496.6 hPa Calm   5.1 km/h 79 % 0 mm
22:54 -6.8 °C -10.3 °C 34496.6 hPa NE 6 km/h   67 % 0 mm
22:59 -6.8 °C -10.3 °C 34496.6 hPa ENE 6 km/h 6 km/h 67 % 0 mm
23:00 -9 °C -11 °C 34496.6 hPa Calm     79 % 0 mm
23:04 -6.8 °C -10.3 °C 34496.6 hPa NE 6.3 km/h 6.3 km/h 67 % 0 mm
23:09 -6.9 °C -10.2 °C 34496.6 hPa NNE 6.3 km/h 6.3 km/h 68 % 0 mm
23:10 -9 °C -10.9 °C 34462.7 hPa Calm     80 % 0 mm
23:14 -6.9 °C -10.2 °C 34496.6 hPa NE 3.1 km/h   68 % 0 mm
23:19 -6.9 °C -10.3 °C 34496.6 hPa ENE 3.7 km/h 3.7 km/h 68 % 0 mm
23:20 -9 °C -10.9 °C 34462.7 hPa Calm     80 % 0 mm
23:24 -6.9 °C -10.3 °C 34496.6 hPa NE 3.7 km/h 3.7 km/h 68 % 0 mm
23:29 -7 °C -10.4 °C 34496.6 hPa NE 3.1 km/h   68 % 0 mm
23:30 -9.1 °C -10.9 °C 34462.7 hPa Calm     80 % 0 mm
23:34 -7 °C -10.4 °C 34496.6 hPa NNE 6 km/h 6 km/h 68 % 0 mm
23:39 -7.1 °C -10.3 °C 34496.6 hPa NNE 6 km/h 6 km/h 69 % 0 mm
23:40 -9.1 °C -11 °C 34462.7 hPa Calm     80 % 0 mm
23:44 -7.1 °C -10.3 °C 34496.6 hPa NNE 3.7 km/h 3.7 km/h 69 % 0 mm
23:49 -7.2 °C -10.3 °C 34496.6 hPa ENE 6 km/h 6 km/h 70 % 0 mm
23:50 -9.1 °C -11 °C 34462.7 hPa SW 2.6 km/h 5.1 km/h 80 % 0 mm
23:54 -7.2 °C -10.3 °C 34496.6 hPa NNW 3.1 km/h   70 % 0 mm
23:59 -7.3 °C -10.3 °C 34496.6 hPa NNE 3.1 km/h   71 % 0 mm
Meteo Sesrovires
Elogis d' Weather Underground - 1.5 mb

Guio original per  Jim McMurry - jmcmurry@mwt.net Adaptat per a la plantilla per  Wim van der Kuil - Leuven-Template.eu

Trobareu la nostra informacio del temps tambe a:

Weather Underground

AWEKAS